Time;durP1;ratioP1;P1;durP2;ratioP2;P2;SDS_P1;SDS_P2;PMS_P1;PMS_P2;Temp;Humidity;BMP_temperature;BMP_pressure;BME280_temperature;BME280_humidity;BME280_pressure;Samples;Min_cycle;Max_cycle;Signal;HPM_P1;HPM_P2
2023/01/05 00:02:35;;;;;;;24.40;4.70;;;;;;;13.32;57.16;100395.00;10329123;28;20221;-87
2023/01/05 00:07:57;;;;;;;16.03;3.80;;;;;;;13.00;58.48;100413.25;10315614;28;20197;-83
2023/01/05 00:24:43;;;;;;;21.53;4.23;;;;;;;13.31;57.97;100419.53;10343207;28;20264;-83
2023/01/05 00:30:05;;;;;;;18.30;3.70;;;;;;;13.21;58.26;100406.59;10339598;28;20226;-83
2023/01/05 00:35:28;;;;;;;17.77;4.20;;;;;;;12.48;59.75;100441.25;10333409;28;20569;-83
2023/01/05 00:40:50;;;;;;;13.87;3.50;;;;;;;12.60;58.71;100430.19;10356565;28;20225;-83
2023/01/05 00:46:13;;;;;;;18.03;4.10;;;;;;;13.11;57.36;100431.47;10363803;28;20205;-87
2023/01/05 00:51:36;;;;;;;15.03;3.57;;;;;;;12.68;58.48;100439.81;10348969;28;20225;-85
2023/01/05 00:56:59;;;;;;;16.77;4.20;;;;;;;12.76;58.83;100445.50;10353442;28;20288;-87
2023/01/05 01:02:22;;;;;;;19.40;3.87;;;;;;;12.46;59.90;100455.63;10340661;28;20267;-81
2023/01/05 01:07:44;;;;;;;14.97;4.73;;;;;;;13.08;57.52;100443.38;10328996;28;20398;-85
2023/01/05 01:13:06;;;;;;;20.80;4.70;;;;;;;12.82;59.50;100451.78;10345321;28;20214;-84
2023/01/05 01:18:30;;;;;;;21.57;4.87;;;;;;;12.18;60.60;100448.56;10333095;28;20201;-81
2023/01/05 01:23:52;;;;;;;18.67;4.53;;;;;;;12.79;58.64;100436.38;10352834;28;20206;-83
2023/01/05 01:29:17;;;;;;;15.80;4.30;;;;;;;12.50;58.74;100438.94;10318544;28;20229;-84
2023/01/05 01:34:39;;;;;;;18.37;5.03;;;;;;;13.14;57.44;100436.44;10350866;28;20193;-83
2023/01/05 01:39:42;;;;;;;20.30;4.43;;;;;;;13.01;57.33;100437.44;10355160;28;20253;-82
2023/01/05 01:45:18;;;;;;;24.63;5.33;;;;;;;12.77;57.70;100449.97;10313249;28;20205;-83
2023/01/05 01:50:46;;;;;;;24.87;4.20;;;;;;;13.10;56.41;100475.69;10344822;28;20557;-86
2023/01/05 01:56:10;;;;;;;18.90;3.93;;;;;;;11.95;60.20;100483.50;10333322;28;20255;-82
2023/01/05 02:01:33;;;;;;;18.10;4.63;;;;;;;13.43;55.58;100478.88;10323413;28;20194;-85
2023/01/05 02:06:55;;;;;;;16.17;4.43;;;;;;;12.90;58.45;100478.31;10334124;28;20256;-85
2023/01/05 02:12:58;;;;;;;20.83;4.87;;;;;;;13.08;57.55;100477.19;10315732;28;20692;-82
2023/01/05 02:18:52;;;;;;;19.20;4.43;;;;;;;12.67;59.06;100484.03;10308397;28;20221;-83
2023/01/05 02:24:27;;;;;;;16.33;4.00;;;;;;;12.95;58.29;100486.59;10333496;28;20229;-85
2023/01/05 02:30:10;;;;;;;15.73;4.57;;;;;;;13.20;57.67;100491.44;10325259;28;20268;-82
2023/01/05 02:35:54;;;;;;;20.00;4.27;;;;;;;12.84;58.41;100489.72;10334701;28;20205;-83
2023/01/05 02:41:25;;;;;;;19.67;4.73;;;;;;;12.74;58.42;100495.66;10334614;28;20268;-82
2023/01/05 02:47:24;;;;;;;20.23;4.60;;;;;;;12.59;58.85;100504.50;10336529;28;20198;-85
2023/01/05 02:53:15;;;;;;;21.03;4.63;;;;;;;12.64;58.46;100504.41;10340808;28;20264;-85
2023/01/05 02:59:16;;;;;;;19.70;4.70;;;;;;;12.30;59.80;100510.66;10341676;28;20626;-82
2023/01/05 03:04:38;;;;;;;22.13;4.33;;;;;;;12.73;58.79;100499.63;10340437;28;20203;-85
2023/01/05 03:13:39;;;;;;;19.00;4.17;;;;;;;12.63;58.75;100514.00;10340084;28;20213;-85
2023/01/05 03:15:45;;;;;;;16.30;4.40;;;;;;;11.87;59.73;100510.41;10346293;28;20205;-86
2023/01/05 03:21:08;;;;;;;20.80;4.47;;;;;;;12.85;57.99;100518.69;10313173;28;20534;-83
2023/01/05 03:38:18;;;;;;;21.87;4.97;;;;;;;11.93;60.42;100511.91;10338228;28;20210;-85
2023/01/05 03:43:41;;;;;;;21.70;4.67;;;;;;;12.51;60.12;100513.75;10329553;28;20210;-85
2023/01/05 03:49:06;;;;;;;21.97;5.07;;;;;;;12.03;63.12;100508.84;10311750;28;20202;-87
2023/01/05 03:54:29;;;;;;;19.57;4.77;;;;;;;12.31;61.34;100508.66;10319628;28;20265;-84
2023/01/05 03:59:51;;;;;;;28.03;5.07;;;;;;;11.98;62.18;100517.44;10329801;28;20499;-86
2023/01/05 04:05:19;;;;;;;14.93;4.83;;;;;;;12.45;60.26;100521.50;10349086;28;20202;-86
2023/01/05 04:10:42;;;;;;;23.67;5.80;;;;;;;12.29;62.54;100533.47;10314533;28;20272;-83
2023/01/05 04:16:07;;;;;;;19.57;5.03;;;;;;;11.40;65.97;100535.09;10330088;28;20601;-85
2023/01/05 04:21:31;;;;;;;22.70;5.17;;;;;;;12.04;63.65;100533.00;10326160;28;20511;-84
2023/01/05 04:26:56;;;;;;;20.63;5.17;;;;;;;12.15;63.37;100539.19;10333735;28;20663;-84
2023/01/05 04:32:18;;;;;;;19.23;5.17;;;;;;;12.29;63.66;100533.47;10332936;28;20530;-86
2023/01/05 04:37:47;;;;;;;21.37;5.93;;;;;;;12.37;63.10;100538.34;10328046;28;20206;-83
2023/01/05 04:43:10;;;;;;;22.40;6.10;;;;;;;11.68;65.71;100543.47;10344276;28;20243;-83
2023/01/05 04:48:34;;;;;;;26.63;6.43;;;;;;;12.21;64.45;100534.25;10328898;28;20250;-83
2023/01/05 04:53:58;;;;;;;24.57;6.40;;;;;;;12.15;63.98;100539.19;10307869;28;20629;-83
2023/01/05 04:59:21;;;;;;;25.17;7.00;;;;;;;12.10;64.77;100554.22;10313364;28;20245;-85
2023/01/05 05:04:43;;;;;;;25.60;6.43;;;;;;;11.83;65.48;100557.16;10312945;28;20280;-84
2023/01/05 05:10:09;;;;;;;29.97;6.53;;;;;;;11.78;65.93;100562.88;10306976;28;20592;-83
2023/01/05 05:15:31;;;;;;;32.03;6.87;;;;;;;12.21;63.85;100560.41;10345937;28;20666;-84
2023/01/05 05:20:54;;;;;;;25.70;6.10;;;;;;;12.64;62.09;100565.47;10339583;28;20240;-86
2023/01/05 05:26:16;;;;;;;23.73;6.00;;;;;;;12.05;62.71;100579.66;10314493;28;20476;-83
2023/01/05 05:31:38;;;;;;;25.87;6.83;;;;;;;11.91;63.98;100581.69;10312059;28;20569;-81
2023/01/05 05:37:01;;;;;;;22.60;6.07;;;;;;;12.12;63.57;100591.28;10316415;28;20206;-82
2023/01/05 05:42:23;;;;;;;23.17;6.50;;;;;;;12.47;65.23;100603.59;10341480;28;20290;-82
2023/01/05 05:47:45;;;;;;;22.23;6.23;;;;;;;11.91;66.03;100601.34;10320319;28;20213;-82
2023/01/05 05:53:07;;;;;;;21.53;6.40;;;;;;;11.85;66.63;100607.44;10335312;28;20273;-82
2023/01/05 05:58:29;;;;;;;28.73;6.03;;;;;;;11.86;67.94;100609.09;10326326;28;20503;-85
2023/01/05 06:03:51;;;;;;;21.30;6.03;;;;;;;12.19;66.71;100612.50;10302349;28;20195;-82
2023/01/05 06:09:13;;;;;;;22.27;5.83;;;;;;;12.17;66.64;100621.25;10315549;28;20225;-81
2023/01/05 06:14:35;;;;;;;27.60;6.50;;;;;;;12.07;67.45;100627.97;10300374;28;20257;-82
2023/01/05 06:19:58;;;;;;;21.37;5.97;;;;;;;12.07;67.58;100638.38;10319731;28;20294;-82
2023/01/05 06:25:20;;;;;;;23.40;6.57;;;;;;;12.30;66.44;100648.47;10313944;28;20222;-84
2023/01/05 06:30:42;;;;;;;19.53;5.97;;;;;;;12.26;67.01;100650.28;10345316;28;20305;-86
2023/01/05 06:36:04;;;;;;;20.80;6.37;;;;;;;12.10;67.48;100658.25;10338967;28;20226;-81
2023/01/05 06:41:26;;;;;;;24.07;6.33;;;;;;;11.79;68.65;100658.13;10312451;28;20260;-83
2023/01/05 06:46:49;;;;;;;22.53;6.53;;;;;;;11.99;68.26;100659.66;10311460;28;20253;-83
2023/01/05 06:52:11;;;;;;;29.13;5.97;;;;;;;12.43;67.02;100663.63;10318989;28;20246;-86
2023/01/05 06:57:35;;;;;;;23.57;6.80;;;;;;;11.64;68.91;100668.88;10326064;28;20241;-82
2023/01/05 07:02:57;;;;;;;28.13;7.27;;;;;;;11.25;70.38;100670.22;10324452;28;20222;-84
2023/01/05 07:08:20;;;;;;;26.83;7.40;;;;;;;12.13;67.63;100682.09;10326733;28;20249;-83
2023/01/05 07:13:46;;;;;;;25.27;5.90;;;;;;;11.66;69.77;100689.06;10323121;28;20307;-85
2023/01/05 07:19:09;;;;;;;23.63;6.67;;;;;;;11.69;68.86;100694.06;10322756;28;20299;-84
2023/01/05 07:24:31;;;;;;;23.03;6.57;;;;;;;12.27;67.62;100699.75;10327685;28;20570;-83
2023/01/05 07:29:53;;;;;;;20.00;6.13;;;;;;;11.53;69.86;100709.53;10323608;28;20567;-82
2023/01/05 07:35:16;;;;;;;19.53;7.13;;;;;;;11.88;69.62;100708.00;10309521;28;20240;-82
2023/01/05 07:40:38;;;;;;;19.07;6.73;;;;;;;11.34;70.85;100716.13;10327695;28;20311;-81
2023/01/05 07:46:02;;;;;;;23.23;6.73;;;;;;;12.22;67.53;100725.19;10325453;28;20659;-81
2023/01/05 07:51:25;;;;;;;22.87;7.40;;;;;;;11.95;68.71;100728.91;10323877;28;20261;-84
2023/01/05 07:56:47;;;;;;;20.07;7.33;;;;;;;11.41;71.22;100733.38;10327921;28;20288;-83
2023/01/05 08:02:09;;;;;;;21.67;7.57;;;;;;;12.08;68.09;100742.09;10323826;28;20222;-84
2023/01/05 08:07:31;;;;;;;29.73;8.23;;;;;;;11.76;70.09;100750.66;10317878;28;20598;-83
2023/01/05 08:18:35;;;;;;;32.27;9.40;;;;;;;11.92;68.78;100754.81;10344026;28;20260;-84
2023/01/05 08:23:58;;;;;;;26.40;9.77;;;;;;;11.73;69.28;100759.75;10320848;28;20276;-83
2023/01/05 08:29:20;;;;;;;27.87;9.97;;;;;;;11.76;67.81;100767.53;10314553;28;20291;-84
2023/01/05 08:34:43;;;;;;;28.83;9.47;;;;;;;11.95;68.30;100776.69;10317771;28;20257;-81
2023/01/05 08:40:07;;;;;;;32.00;11.07;;;;;;;12.37;66.08;100771.81;10315504;28;20714;-83
2023/01/05 08:45:31;;;;;;;29.90;8.77;;;;;;;12.46;66.89;100781.16;10294404;28;20689;-82
2023/01/05 08:50:53;;;;;;;30.03;8.70;;;;;;;12.55;66.83;100786.84;10317624;28;20246;-83
2023/01/05 08:56:16;;;;;;;31.83;9.43;;;;;;;11.97;69.27;100793.25;10323522;28;21719;-83
2023/01/05 09:01:38;;;;;;;30.67;9.37;;;;;;;12.30;67.92;100799.53;10305500;28;20570;-82
2023/01/05 09:07:00;;;;;;;32.67;8.53;;;;;;;11.88;69.24;100810.00;10306193;28;20226;-80
2023/01/05 09:12:22;;;;;;;31.67;8.80;;;;;;;12.36;66.81;100816.00;10329984;28;20258;-81
2023/01/05 09:17:44;;;;;;;26.30;7.97;;;;;;;11.86;67.72;100823.56;10322719;28;20229;-81
2023/01/05 09:23:06;;;;;;;29.43;7.63;;;;;;;12.37;66.79;100817.66;10335790;28;20319;-84
2023/01/05 09:38:37;;;;;;;29.00;8.07;;;;;;;9.10;85.77;100846.56;10560924;27;20598;-82
2023/01/05 09:44:18;;;;;;;30.30;7.83;;;;;;;9.25;83.79;100854.81;10554048;28;20242;-81
2023/01/05 09:49:41;;;;;;;28.50;8.43;;;;;;;9.31;83.80;100869.59;10535833;28;20283;-82
2023/01/05 09:55:13;;;;;;;35.83;9.10;;;;;;;9.34;82.76;100873.75;10546957;28;20644;-81
2023/01/05 10:00:39;;;;;;;29.87;8.60;;;;;;;9.02;83.65;100886.34;10546499;28;20206;-82
2023/01/05 10:06:02;;;;;;;35.03;9.30;;;;;;;9.51;81.93;100886.25;10546596;28;20263;-83
2023/01/05 10:17:27;;;;;;;30.03;9.33;;;;;;;9.49;82.63;100887.66;10555808;28;20307;-83
2023/01/05 10:23:07;;;;;;;30.40;9.37;;;;;;;9.30;82.39;100890.31;10533792;28;20462;-83
2023/01/05 10:28:41;;;;;;;27.93;8.93;;;;;;;9.51;82.03;100891.00;10549765;28;20653;-82
2023/01/05 10:34:35;;;;;;;29.83;8.70;;;;;;;9.65;80.50;100906.00;10554199;28;20262;-83
2023/01/05 10:40:00;;;;;;;31.67;9.67;;;;;;;9.47;81.88;100901.94;10528352;28;20198;-82
2023/01/05 10:45:28;;;;;;;34.33;10.13;;;;;;;9.21;82.37;100909.69;10547690;28;20226;-82
2023/01/05 10:50:51;;;;;;;28.40;8.63;;;;;;;9.37;81.22;100906.78;10496717;28;20338;-84
2023/01/05 10:56:24;;;;;;;27.27;9.40;;;;;;;9.44;81.58;100907.28;10512330;28;20246;-85
2023/01/05 11:01:48;;;;;;;21.97;8.20;;;;;;;9.43;81.09;100912.06;10512082;28;20213;-84
2023/01/05 11:07:10;;;;;;;35.17;10.50;;;;;;;9.42;80.91;100923.53;10520843;28;20214;-85
2023/01/05 11:12:34;;;;;;;29.50;8.93;;;;;;;9.39;79.95;100922.16;10522169;28;20237;-82
2023/01/05 11:17:56;;;;;;;33.27;9.00;;;;;;;9.58;80.37;100925.09;10523070;28;20264;-82
2023/01/05 11:23:34;;;;;;;28.67;9.43;;;;;;;9.48;79.34;100925.19;10517891;28;20284;-82
2023/01/05 11:29:11;;;;;;;28.37;9.57;;;;;;;9.46;79.97;100921.84;10498427;28;20275;-82
2023/01/05 11:34:44;;;;;;;25.97;8.60;;;;;;;9.59;79.28;100922.00;10509760;28;20254;-82
2023/01/05 11:40:14;;;;;;;25.17;8.50;;;;;;;9.28;80.48;100921.38;10507617;28;20294;-83
2023/01/05 11:45:40;;;;;;;26.27;7.87;;;;;;;9.70;77.76;100922.72;10497879;28;20223;-83
2023/01/05 11:51:02;;;;;;;25.33;8.30;;;;;;;9.66;77.73;100927.28;10496019;28;20241;-81
2023/01/05 11:56:25;;;;;;;19.97;6.90;;;;;;;9.27;79.13;100918.91;10503237;28;20666;-82
2023/01/05 12:02:15;;;;;;;23.00;7.00;;;;;;;9.91;76.54;100923.38;10494902;28;20218;-81
2023/01/05 12:07:44;;;;;;;25.53;7.17;;;;;;;9.42;78.71;100926.34;10508039;28;20219;-82
2023/01/05 12:13:17;;;;;;;23.53;7.77;;;;;;;9.67;76.95;100923.31;10511548;28;20238;-82
2023/01/05 12:18:39;;;;;;;22.50;7.33;;;;;;;9.85;75.91;100919.78;10502180;28;20308;-82
2023/01/05 12:24:26;;;;;;;21.87;7.90;;;;;;;10.16;74.79;100914.66;10512362;28;20255;-82
2023/01/05 12:30:22;;;;;;;31.93;7.87;;;;;;;10.32;75.40;100923.72;10517279;28;20275;-83
2023/01/05 12:36:15;;;;;;;23.37;6.93;;;;;;;10.48;73.75;100928.00;10515975;28;20733;-81
2023/01/05 12:42:01;;;;;;;19.87;6.83;;;;;;;10.15;73.95;100934.59;10501478;28;20230;-82
2023/01/05 12:47:35;;;;;;;22.23;6.93;;;;;;;9.98;75.20;100947.09;10494907;28;20218;-84
2023/01/05 12:53:35;;;;;;;25.20;7.10;;;;;;;9.82;75.19;100953.16;10507581;28;20235;-81
2023/01/05 12:59:17;;;;;;;23.70;6.93;;;;;;;9.76;75.55;100948.75;10514380;28;20331;-83
2023/01/05 13:04:43;;;;;;;26.87;6.30;;;;;;;10.44;73.27;100932.56;10487082;28;20222;-84
2023/01/05 13:10:14;;;;;;;19.00;5.30;;;;;;;10.34;73.05;100943.88;10499967;28;20656;-83
2023/01/05 13:15:42;;;;;;;21.53;4.90;;;;;;;10.29;72.37;100939.19;10482882;28;20226;-83
2023/01/05 13:21:05;;;;;;;20.30;5.37;;;;;;;10.06;72.79;100953.19;10505007;28;20230;-83
2023/01/05 13:26:29;;;;;;;23.70;5.57;;;;;;;10.00;73.08;100947.63;10504445;28;20346;-83
2023/01/05 13:32:26;;;;;;;16.00;4.20;;;;;;;9.82;72.71;100948.38;10503229;28;20230;-83
2023/01/05 13:37:44;;;;;;;18.17;4.27;;;;;;;10.02;70.62;100953.78;10502431;28;20562;-83
2023/01/05 13:43:04;;;;;;;16.03;4.13;;;;;;;10.46;70.49;100952.69;10503210;28;20247;-83
2023/01/05 13:48:13;;;;;;;14.80;4.00;;;;;;;9.88;72.02;100958.41;10493574;28;20308;-84
2023/01/05 13:53:19;;;;;;;14.23;3.80;;;;;;;10.12;71.45;100966.84;10522004;28;20230;-83
2023/01/05 13:58:33;;;;;;;16.03;4.00;;;;;;;9.80;70.52;100967.44;10490457;28;20234;-83
2023/01/05 14:03:45;;;;;;;18.97;3.40;;;;;;;9.43;72.43;100967.22;10521631;28;20586;-83
2023/01/05 14:09:00;;;;;;;21.17;3.93;;;;;;;10.05;69.64;100971.16;10496233;28;20253;-83
2023/01/05 14:14:26;;;;;;;19.37;4.27;;;;;;;10.40;68.89;100965.13;10498093;28;20221;-83
2023/01/05 14:19:31;;;;;;;17.27;4.00;;;;;;;10.16;69.54;100972.69;10494946;28;20237;-82
2023/01/05 14:24:35;;;;;;;17.83;4.20;;;;;;;10.04;70.56;100980.69;10498488;28;20257;-83
2023/01/05 14:29:47;;;;;;;18.77;4.60;;;;;;;9.95;70.01;100978.50;10484488;28;20238;-83
2023/01/05 14:34:52;;;;;;;15.33;4.63;;;;;;;9.77;72.61;100986.84;10513800;28;20267;-83
2023/01/05 14:39:55;;;;;;;20.03;4.80;;;;;;;9.64;72.40;100988.34;10509845;28;20223;-83
2023/01/05 14:45:23;;;;;;;20.47;5.67;;;;;;;10.25;69.90;100984.94;10500103;28;20249;-83
2023/01/05 14:50:39;;;;;;;22.87;5.50;;;;;;;9.81;72.80;100990.69;10516882;28;20230;-84
2023/01/05 14:55:50;;;;;;;19.60;5.90;;;;;;;9.89;71.78;100987.28;10520840;28;20234;-81
2023/01/05 15:00:56;;;;;;;14.93;5.80;;;;;;;9.91;71.10;100979.41;10527744;28;20198;-82
2023/01/05 15:06:09;;;;;;;16.00;5.90;;;;;;;9.91;70.25;100987.81;10525991;28;20246;-84
2023/01/05 15:11:29;;;;;;;20.87;5.77;;;;;;;9.72;71.80;101000.88;10509646;28;20230;-83
2023/01/05 15:17:08;;;;;;;15.60;6.00;;;;;;;9.83;71.63;100986.47;10523859;28;20268;-82
2023/01/05 15:22:46;;;;;;;22.20;7.03;;;;;;;9.35;73.41;100993.88;10483154;28;20295;-83
2023/01/05 15:28:17;;;;;;;19.77;6.07;;;;;;;9.55;72.37;100995.69;10511553;28;20599;-83
2023/01/05 15:33:41;;;;;;;19.80;6.10;;;;;;;9.49;72.14;100991.28;10520671;28;20222;-83
2023/01/05 15:38:45;;;;;;;19.40;6.10;;;;;;;9.19;73.43;100986.69;10490883;28;20671;-83
2023/01/05 15:43:48;;;;;;;20.43;6.23;;;;;;;9.67;71.66;100987.75;10489104;28;20224;-82
2023/01/05 15:48:52;;;;;;;20.97;6.07;;;;;;;9.68;71.56;100977.38;10484552;28;20730;-83
2023/01/05 15:53:57;;;;;;;23.23;5.97;;;;;;;9.61;71.48;100980.53;10501447;28;20759;-84
2023/01/05 15:59:00;;;;;;;21.57;5.87;;;;;;;9.29;72.48;100983.81;10520184;28;20268;-83
2023/01/05 16:04:07;;;;;;;14.33;4.97;;;;;;;9.59;72.16;100988.38;10500232;28;20226;-83
2023/01/05 16:09:21;;;;;;;16.97;5.20;;;;;;;9.37;72.60;100983.22;10502325;28;20247;-82
2023/01/05 16:14:37;;;;;;;18.63;6.07;;;;;;;9.51;70.75;100986.22;10518456;28;20230;-83
2023/01/05 16:19:47;;;;;;;16.33;6.57;;;;;;;9.69;70.80;100982.69;10520677;28;20215;-84
2023/01/05 16:25:05;;;;;;;20.13;6.73;;;;;;;9.62;71.08;100987.78;10507964;28;20204;-84
2023/01/05 16:30:29;;;;;;;17.47;6.90;;;;;;;9.43;72.08;100990.47;10511080;28;20225;-83
2023/01/05 16:35:39;;;;;;;17.23;6.70;;;;;;;9.37;71.81;100990.78;10507078;28;20258;-83
2023/01/05 16:40:44;;;;;;;19.57;6.60;;;;;;;9.06;73.94;100996.56;10500162;28;20256;-83
2023/01/05 16:45:48;;;;;;;20.00;5.93;;;;;;;9.22;74.74;100991.72;10514265;28;20260;-82
2023/01/05 16:50:54;;;;;;;17.23;5.37;;;;;;;9.13;75.12;101002.69;10504752;28;20217;-82
2023/01/05 16:55:57;;;;;;;25.57;6.40;;;;;;;9.27;75.04;100997.28;10505928;28;20874;-84
2023/01/05 17:01:12;;;;;;;27.70;6.80;;;;;;;9.21;75.12;100993.69;10502592;28;20602;-83
2023/01/05 17:06:26;;;;;;;21.33;5.73;;;;;;;8.83;76.52;100992.50;10494737;28;20301;-84
2023/01/05 17:11:38;;;;;;;19.50;5.30;;;;;;;8.89;77.32;100996.13;10519863;28;20226;-84
2023/01/05 17:16:42;;;;;;;23.57;6.30;;;;;;;8.90;77.56;100987.41;10522377;28;20260;-82
2023/01/05 17:21:55;;;;;;;23.87;6.30;;;;;;;9.06;77.51;100982.56;10475476;28;20614;-84
2023/01/05 17:26:58;;;;;;;30.23;6.60;;;;;;;8.69;78.79;100979.44;10504486;28;20237;-84
2023/01/05 17:32:00;;;;;;;27.80;6.43;;;;;;;8.79;79.06;100970.97;10490866;28;20252;-85
2023/01/05 17:37:03;;;;;;;27.53;6.20;;;;;;;9.19;77.17;100956.75;10475805;28;20258;-82
2023/01/05 17:47:26;;;;;;;25.27;6.60;;;;;;;8.51;80.87;100959.38;10505898;28;21043;-83
2023/01/05 17:52:28;;;;;;;23.93;5.73;;;;;;;8.69;81.23;100957.06;10481878;28;20226;-82
2023/01/05 17:57:30;;;;;;;19.03;5.23;;;;;;;8.59;82.45;100947.59;10497152;28;20248;-83
2023/01/05 18:02:32;;;;;;;23.70;5.93;;;;;;;8.81;81.72;100954.75;10520958;28;20281;-82
2023/01/05 18:07:35;;;;;;;24.70;5.97;;;;;;;8.73;81.82;100963.75;10508063;28;20253;-83
2023/01/05 18:12:38;;;;;;;24.97;6.57;;;;;;;8.70;82.98;100953.13;10508120;28;20220;-83
2023/01/05 18:17:41;;;;;;;19.53;6.40;;;;;;;8.54;82.96;100950.41;10504179;28;20223;-83
2023/01/05 18:22:43;;;;;;;28.80;6.57;;;;;;;8.87;82.22;100948.03;10493071;28;20230;-83
2023/01/05 18:28:05;;;;;;;24.47;6.17;;;;;;;8.82;83.36;100940.47;10527339;28;21244;-82
2023/01/05 18:33:27;;;;;;;20.50;6.30;;;;;;;8.72;83.08;100950.91;10528977;28;20583;-83
2023/01/05 18:38:50;;;;;;;21.47;6.07;;;;;;;8.57;84.80;100944.25;10518862;28;20231;-83
2023/01/05 18:43:52;;;;;;;19.07;5.13;;;;;;;8.65;85.61;100936.38;10512737;28;20225;-83
2023/01/05 18:48:54;;;;;;;12.97;4.77;;;;;;;8.87;84.38;100922.84;10516045;28;20249;-82
2023/01/05 18:53:57;;;;;;;19.27;5.13;;;;;;;8.55;85.24;100931.69;10521882;28;20683;-83
2023/01/05 18:58:59;;;;;;;18.77;5.47;;;;;;;8.70;85.40;100925.16;10527926;28;20451;-83
2023/01/05 19:04:02;;;;;;;15.20;4.57;;;;;;;8.33;86.64;100923.69;10520614;28;20283;-83
2023/01/05 19:09:07;;;;;;;20.37;5.50;;;;;;;8.65;86.25;100922.41;10521614;28;20246;-84
2023/01/05 19:14:11;;;;;;;12.73;4.97;;;;;;;8.85;83.93;100927.88;10509201;28;20223;-83
2023/01/05 19:19:14;;;;;;;15.93;4.67;;;;;;;8.77;85.09;100914.50;10503841;28;20272;-84
2023/01/05 19:24:22;;;;;;;11.43;4.80;;;;;;;8.49;85.99;100908.53;10495366;28;20263;-83
2023/01/05 19:29:24;;;;;;;12.10;4.33;;;;;;;8.52;86.65;100910.72;10517386;28;20755;-82
2023/01/05 19:34:27;;;;;;;16.00;5.63;;;;;;;8.47;86.72;100916.34;10513885;28;20836;-82
2023/01/05 19:39:29;;;;;;;16.60;5.80;;;;;;;8.67;87.34;100908.97;10509971;28;20284;-83
2023/01/05 19:44:31;;;;;;;11.10;5.37;;;;;;;8.63;88.12;100913.47;10489954;28;20236;-83
2023/01/05 19:49:34;;;;;;;10.67;6.17;;;;;;;8.36;90.01;100911.09;10496901;28;20243;-83
2023/01/05 19:54:38;;;;;;;11.70;6.17;;;;;;;8.53;90.26;100908.75;10503353;28;20211;-83
2023/01/05 19:59:42;;;;;;;8.50;6.30;;;;;;;8.65;89.63;100914.00;10518090;28;20230;-83
2023/01/05 20:04:45;;;;;;;12.00;7.03;;;;;;;8.71;87.94;100910.06;10488435;28;20226;-82
2023/01/05 20:09:49;;;;;;;11.67;6.87;;;;;;;8.76;88.45;100896.06;10472876;28;20570;-83
2023/01/05 20:14:51;;;;;;;9.60;6.13;;;;;;;8.78;88.85;100897.41;10489035;28;20222;-83
2023/01/05 20:19:54;;;;;;;11.97;7.07;;;;;;;8.70;89.22;100897.22;10491174;28;20226;-84
2023/01/05 20:24:56;;;;;;;11.57;6.70;;;;;;;8.68;89.24;100894.69;10484870;28;20210;-84
2023/01/05 20:29:58;;;;;;;11.83;6.90;;;;;;;8.79;89.01;100901.06;10500641;28;20241;-86
2023/01/05 20:35:01;;;;;;;11.20;7.40;;;;;;;9.09;87.64;100894.41;10505401;28;20280;-83
2023/01/05 20:40:04;;;;;;;12.63;6.73;;;;;;;8.49;91.86;100891.75;10494989;28;20223;-83
2023/01/05 20:45:07;;;;;;;11.90;7.23;;;;;;;8.70;92.22;100886.03;10491579;28;20223;-84
2023/01/05 20:50:09;;;;;;;10.37;7.17;;;;;;;8.38;93.52;100884.50;10520469;28;20246;-83
2023/01/05 20:55:11;;;;;;;8.77;6.23;;;;;;;8.69;92.20;100895.53;10510714;28;20231;-82
2023/01/05 21:00:15;;;;;;;12.23;7.10;;;;;;;8.47;93.30;100893.16;10485815;28;20603;-83
2023/01/05 21:05:17;;;;;;;8.53;6.07;;;;;;;8.48;93.58;100889.22;10511202;28;20245;-81
2023/01/05 21:10:20;;;;;;;11.10;8.63;;;;;;;8.78;91.96;100888.19;10509719;28;20234;-82
2023/01/05 21:15:23;;;;;;;9.53;7.57;;;;;;;8.81;92.01;100882.88;10515341;28;20283;-83
2023/01/05 21:20:26;;;;;;;10.70;6.80;;;;;;;8.58;93.33;100878.81;10504503;28;20247;-82
2023/01/05 21:25:28;;;;;;;8.77;6.73;;;;;;;8.91;91.88;100876.34;10499928;28;20227;-82
2023/01/05 21:30:50;;;;;;;8.87;6.67;;;;;;;8.77;92.29;100869.72;10517861;28;20258;-84
2023/01/05 21:35:54;;;;;;;9.70;5.90;;;;;;;8.91;91.27;100867.97;10517997;28;20230;-82
2023/01/05 21:41:07;;;;;;;7.43;5.30;;;;;;;8.58;92.98;100869.59;10525624;28;20279;-83
2023/01/05 21:46:10;;;;;;;6.77;5.63;;;;;;;8.79;92.64;100870.28;10495631;28;20870;-84
2023/01/05 21:56:38;;;;;;;11.57;7.17;;;;;;;8.79;93.32;100867.50;10525676;28;20214;-84
2023/01/05 22:01:40;;;;;;;8.70;7.37;;;;;;;9.06;91.95;100848.25;10517894;28;20210;-84
2023/01/05 22:06:42;;;;;;;8.20;7.33;;;;;;;9.41;89.85;100854.72;10525299;28;20230;-85
2023/01/05 22:11:46;;;;;;;7.53;6.77;;;;;;;9.27;90.70;100854.53;10526067;28;20222;-86
2023/01/05 22:16:48;;;;;;;13.00;7.73;;;;;;;9.13;91.77;100850.72;10511269;28;20280;-84
2023/01/05 22:21:50;;;;;;;9.50;7.53;;;;;;;9.36;90.76;100849.94;10521764;28;20199;-84
2023/01/05 22:26:53;;;;;;;12.87;8.97;;;;;;;9.48;91.02;100846.78;10529675;28;20291;-84
2023/01/05 22:31:56;;;;;;;10.60;9.00;;;;;;;9.24;90.93;100836.34;10515841;28;20222;-83
2023/01/05 22:37:01;;;;;;;12.47;8.43;;;;;;;9.36;90.81;100832.31;10524567;28;20250;-86
2023/01/05 22:42:03;;;;;;;12.13;9.07;;;;;;;9.65;89.39;100834.00;10506752;28;20244;-85
2023/01/05 22:47:05;;;;;;;11.00;8.23;;;;;;;9.65;89.47;100836.81;10523197;28;20241;-85
2023/01/05 22:52:07;;;;;;;13.10;8.63;;;;;;;8.89;92.79;100850.66;10503459;28;20226;-86
2023/01/05 22:57:09;;;;;;;10.03;6.97;;;;;;;9.54;89.67;100840.81;10514414;28;20261;-85
2023/01/05 23:02:12;;;;;;;6.80;5.67;;;;;;;9.28;88.96;100843.00;10524961;28;20232;-85
2023/01/05 23:07:19;;;;;;;8.60;7.10;;;;;;;9.58;87.82;100835.47;10521562;28;20507;-86
2023/01/05 23:12:21;;;;;;;9.50;8.60;;;;;;;9.49;88.21;100842.84;10510165;28;20194;-84
2023/01/05 23:17:23;;;;;;;16.80;11.67;;;;;;;9.39;88.94;100842.94;10531869;28;20222;-84
2023/01/05 23:22:26;;;;;;;13.40;10.87;;;;;;;9.81;87.33;100834.63;10504100;28;20223;-83
2023/01/05 23:27:28;;;;;;;14.00;12.00;;;;;;;9.67;87.73;100821.66;10530112;28;20295;-83
2023/01/05 23:32:30;;;;;;;14.40;12.00;;;;;;;9.61;88.01;100812.47;10487126;28;20202;-84
2023/01/05 23:37:33;;;;;;;12.80;11.47;;;;;;;9.61;88.30;100824.50;10527748;28;20252;-82
2023/01/05 23:42:42;;;;;;;11.97;9.43;;;;;;;9.48;89.17;100804.78;10497746;28;20207;-83
2023/01/05 23:47:44;;;;;;;11.73;8.93;;;;;;;9.70;88.19;100816.28;10497856;28;20626;-84
2023/01/05 23:52:47;;;;;;;10.93;7.13;;;;;;;9.36;87.94;100819.16;10515016;28;20468;-84
2023/01/05 23:57:49;;;;;;;10.50;6.23;;;;;;;9.44;87.99;100817.69;10492974;28;20256;-83
